This is the latest recevied weather packets stored in our database for station/object ON4CDJ-13. If no packets are shown the sender has not sent any weather packets the latest 10 day(s).
| Time | Temp. | Humidity | Pressure | Rain* | Wind** | Luminosity | Snow |
|---|---|---|---|---|---|---|---|
| 1778186146 | 12.22° C | 75% | 1018 hPa | 0 mm | - | 0 W/m² | - |
| 1778185529 | 12.22° C | 74% | 1017.9 hPa | 0 mm | - | 0 W/m² | - |
| 1778184356 | 12.22° C | 72% | 1017.7 hPa | 0 mm | - | 0 W/m² | - |
| 1778179522 | 13.89° C | 63% | 1017.3 hPa | 0 mm | - | 8 W/m² | - |
| 1778175365 | 15° C | 55% | 1017.2 hPa | 0 mm | - | 38 W/m² | - |
| 1778174766 | 15° C | 56% | 1017.2 hPa | 0 mm | - | 45 W/m² | - |
| 1778174135 | 15° C | 52% | 1017.2 hPa | 0 mm | - | 53 W/m² | - |
| 1778169408 | 15.56° C | 55% | 1017.2 hPa | 0 mm | - | 130 W/m² | - |
| 1778168745 | 15.56° C | 53% | 1017.3 hPa | 0 mm | - | 143 W/m² | - |
| 1778163944 | 15° C | 54% | 1017.2 hPa | 0 mm | - | 156 W/m² | - |
| 1778161588 | 15° C | 58% | 1017.4 hPa | 0 mm | - | 135 W/m² | - |
| 1778157926 | 15° C | 55% | 1017.3 hPa | 0 mm | - | 122 W/m² | - |
| 1778155578 | 15.56° C | 57% | 1017.2 hPa | 0 mm | - | 219 W/m² | - |
| 1778154946 | 16.11° C | 55% | 1017.2 hPa | 0 mm | - | 211 W/m² | - |
| 1778154332 | 16.67° C | 54% | 1017.2 hPa | 0 mm | - | 425 W/m² | - |
| 1778152037 | 16.67° C | 47% | 1017.3 hPa | 0 mm | - | 356 W/m² | - |
| 1778150275 | 16.11° C | 53% | 1017.5 hPa | 0 mm | - | 408 W/m² | - |
| 1778149560 | 16.67° C | 51% | 1017.3 hPa | 0 mm | - | 682 W/m² | - |
| 1778135792 | 10° C | 88% | 1016.8 hPa | 0 mm | - | 112 W/m² | - |
| 1778129742 | 7.78° C | 94% | 1016 hPa | 0 mm | - | 20 W/m² | - |
| 1778128566 | 7.22° C | 94% | 1015.7 hPa | 0 mm | - | 9 W/m² | - |
| 1778123746 | 6.67° C | 93% | 1015.1 hPa | 0 mm | - | 0 W/m² | - |
| 1778122590 | 6.67° C | 93% | 1015.1 hPa | 0 mm | - | 0 W/m² | - |
| 1778121339 | 6.67° C | 93% | 1015.1 hPa | 0 mm | - | 0 W/m² | - |
| 1778119545 | 6.67° C | 92% | 1014.8 hPa | 0 mm | - | 0 W/m² | - |
* Rain latest hour (hover to see other rain measurements)
** Current wind speed in m/s (hover to see current wind gust speed)